Time;durP1;ratioP1;P1;durP2;ratioP2;P2;SDS_P1;SDS_P2;PMS_P1;PMS_P2;Temp;Humidity;BMP_temperature;BMP_pressure;BME280_temperature;BME280_humidity;BME280_pressure;Samples;Min_cycle;Max_cycle;Signal;HPM_P1;HPM_P2
2022/04/12 00:02:32;;;;;;;4.53;1.75;;;7.80;99.90;;;;;;5091675;28;20047;-65
2022/04/12 00:05:38;;;;;;;5.30;1.88;;;7.80;99.90;;;;;;5091886;28;20028;-65
2022/04/12 00:08:42;;;;;;;6.28;2.20;;;7.90;99.90;;;;;;5091230;28;20035;-65
2022/04/12 00:11:46;;;;;;;5.93;2.10;;;7.90;99.90;;;;;;5091844;28;20492;-65
2022/04/12 00:14:50;;;;;;;7.40;2.20;;;8.00;99.90;;;;;;5092055;28;20039;-64
2022/04/12 00:21:17;;;;;;;8.68;2.55;;;8.10;99.90;;;;;;5091804;28;20508;-64
2022/04/12 00:24:21;;;;;;;5.55;2.10;;;8.10;99.90;;;;;;5091453;28;20047;-64
2022/04/12 00:27:25;;;;;;;6.65;1.95;;;8.10;99.90;;;;;;5091000;28;20035;-65
2022/04/12 00:30:29;;;;;;;8.27;2.45;;;8.10;99.90;;;;;;5091561;28;20054;-64
2022/04/12 00:33:34;;;;;;;5.90;1.85;;;8.10;99.90;;;;;;5091223;28;20509;-65
2022/04/12 00:36:39;;;;;;;5.72;2.50;;;8.10;99.90;;;;;;5090763;28;20047;-65
2022/04/12 00:39:44;;;;;;;6.68;2.20;;;8.10;99.90;;;;;;5091300;28;20043;-64
2022/04/12 00:42:48;;;;;;;7.00;2.20;;;8.10;99.90;;;;;;5091173;28;20051;-64
2022/04/12 00:45:52;;;;;;;5.50;2.28;;;8.00;99.90;;;;;;5091026;28;20041;-64
2022/04/12 00:48:56;;;;;;;8.50;2.33;;;8.00;99.90;;;;;;5091294;28;20028;-64
2022/04/12 00:52:01;;;;;;;5.95;2.35;;;8.00;99.90;;;;;;5091111;28;20488;-64
2022/04/12 00:55:06;;;;;;;3.10;1.90;;;8.00;99.90;;;;;;5091272;28;20126;-65
2022/04/12 00:58:10;;;;;;;7.05;2.33;;;7.90;99.90;;;;;;5090584;28;20051;-64
2022/04/12 01:01:14;;;;;;;4.93;1.95;;;7.90;99.90;;;;;;5091147;28;20047;-65
2022/04/12 01:04:19;;;;;;;8.85;3.00;;;7.80;99.90;;;;;;5090891;28;20532;-64
2022/04/12 01:07:23;;;;;;;4.75;1.92;;;7.90;99.90;;;;;;5090679;28;20387;-65
2022/04/12 01:10:28;;;;;;;6.97;2.20;;;7.70;99.90;;;;;;5091244;28;20043;-65
2022/04/12 01:13:32;;;;;;;5.22;2.00;;;7.60;99.90;;;;;;5090918;28;20047;-65
2022/04/12 01:16:37;;;;;;;6.03;2.40;;;7.40;99.90;;;;;;5090670;28;20060;-64
2022/04/12 01:19:43;;;;;;;7.07;3.20;;;7.30;99.90;;;;;;5091106;28;20048;-65
2022/04/12 01:22:52;;;;;;;5.80;2.53;;;7.20;99.90;;;;;;5090739;28;20048;-65
2022/04/12 01:25:56;;;;;;;6.68;2.70;;;7.20;99.90;;;;;;5090603;28;20391;-65
2022/04/12 01:29:00;;;;;;;9.55;3.10;;;7.20;99.90;;;;;;5090459;28;20036;-64
2022/04/12 01:32:08;;;;;;;9.68;2.67;;;7.10;99.90;;;;;;5090352;28;20043;-65
2022/04/12 01:35:12;;;;;;;9.93;2.90;;;7.10;99.90;;;;;;5090028;28;20032;-65
2022/04/12 01:38:16;;;;;;;7.63;2.50;;;7.00;99.90;;;;;;5089862;28;20055;-64
2022/04/12 01:41:20;;;;;;;7.63;3.30;;;6.90;99.90;;;;;;5090000;28;20115;-64
2022/04/12 01:44:24;;;;;;;9.30;3.55;;;6.80;99.90;;;;;;5090183;28;20047;-65
2022/04/12 01:47:28;;;;;;;8.10;3.72;;;6.80;99.90;;;;;;5089660;28;20028;-65
2022/04/12 01:50:32;;;;;;;7.07;3.40;;;6.60;99.90;;;;;;5089629;28;20047;-65
2022/04/12 01:53:37;;;;;;;12.95;3.65;;;6.50;99.90;;;;;;5090246;28;20044;-64
2022/04/12 01:56:41;;;;;;;4.63;3.20;;;6.40;99.90;;;;;;5089885;28;20399;-64
2022/04/12 01:59:45;;;;;;;6.47;3.35;;;6.40;99.90;;;;;;5089924;28;20494;-65
2022/04/12 02:02:49;;;;;;;7.68;3.90;;;6.40;99.90;;;;;;5089864;28;20471;-65
2022/04/12 02:05:54;;;;;;;11.32;4.30;;;6.40;99.90;;;;;;5090137;28;20126;-64
2022/04/12 02:08:58;;;;;;;9.25;4.05;;;6.30;99.90;;;;;;5090021;28;20047;-64
2022/04/12 02:12:02;;;;;;;9.57;4.97;;;6.30;99.90;;;;;;5089900;28;20036;-65
2022/04/12 02:15:08;;;;;;;9.07;4.03;;;6.20;99.90;;;;;;5089720;28;20047;-64
2022/04/12 02:18:12;;;;;;;8.48;4.00;;;6.10;99.90;;;;;;5089503;28;20390;-65
2022/04/12 02:21:16;;;;;;;13.27;3.95;;;6.00;99.90;;;;;;5089879;28;20129;-64
2022/04/12 02:24:20;;;;;;;8.30;3.75;;;6.00;99.90;;;;;;5089674;28;20391;-64
2022/04/12 02:27:24;;;;;;;6.90;3.50;;;6.00;99.90;;;;;;5089758;28;20036;-64
2022/04/12 02:30:28;;;;;;;6.35;3.60;;;6.10;99.90;;;;;;5090488;28;20518;-64
2022/04/12 02:33:32;;;;;;;8.65;4.00;;;6.10;99.90;;;;;;5093809;28;20056;-65
2022/04/12 02:36:36;;;;;;;10.63;4.32;;;6.10;99.90;;;;;;5093273;28;20043;-64
2022/04/12 02:39:40;;;;;;;8.38;3.88;;;6.10;99.90;;;;;;5093705;28;20043;-64
2022/04/12 02:42:44;;;;;;;6.88;4.15;;;6.10;99.90;;;;;;5093497;28;20039;-64
2022/04/12 02:45:48;;;;;;;8.48;4.10;;;6.10;99.90;;;;;;5093260;28;20065;-64
2022/04/12 02:48:52;;;;;;;11.23;3.80;;;6.20;99.90;;;;;;5093273;28;20036;-65
2022/04/12 02:51:55;;;;;;;10.90;4.05;;;6.20;99.90;;;;;;5093397;28;20035;-64
2022/04/12 02:54:59;;;;;;;8.45;3.85;;;6.20;99.90;;;;;;5093086;28;20035;-64
2022/04/12 02:58:03;;;;;;;16.52;5.75;;;6.20;99.90;;;;;;5093148;28;20031;-64
2022/04/12 03:01:08;;;;;;;12.18;5.10;;;6.20;99.90;;;;;;5093189;28;20043;-64
2022/04/12 03:04:12;;;;;;;13.95;6.63;;;6.20;99.90;;;;;;5092623;28;20035;-64
2022/04/12 03:07:16;;;;;;;11.25;4.68;;;6.20;99.90;;;;;;5092820;28;20047;-65
2022/04/12 03:10:20;;;;;;;18.45;7.93;;;6.10;99.90;;;;;;5092893;28;20043;-64
2022/04/12 03:13:24;;;;;;;9.18;3.92;;;6.10;99.90;;;;;;5093227;28;20050;-64
2022/04/12 03:16:28;;;;;;;7.22;4.03;;;6.10;99.90;;;;;;5092321;28;20039;-65
2022/04/12 03:19:32;;;;;;;10.48;4.05;;;6.10;99.90;;;;;;5092784;28;20498;-64
2022/04/12 03:22:36;;;;;;;10.45;4.60;;;6.00;99.90;;;;;;5092803;28;20047;-65
2022/04/12 03:25:40;;;;;;;8.55;4.00;;;6.00;99.90;;;;;;5092444;28;20043;-65
2022/04/12 03:28:45;;;;;;;15.93;7.57;;;5.90;99.90;;;;;;5092494;28;20031;-64
2022/04/12 03:31:50;;;;;;;9.10;3.50;;;5.90;99.90;;;;;;5092714;28;20458;-65
2022/04/12 03:34:54;;;;;;;7.20;4.13;;;5.90;99.90;;;;;;5092393;28;20048;-64
2022/04/12 03:38:01;;;;;;;8.27;3.78;;;5.90;99.90;;;;;;5092164;28;20394;-64
2022/04/12 03:41:06;;;;;;;8.88;3.97;;;5.90;99.90;;;;;;5092587;28;20051;-64
2022/04/12 03:44:10;;;;;;;12.88;5.13;;;5.80;99.90;;;;;;5091909;28;20036;-65
2022/04/12 03:47:15;;;;;;;7.10;3.55;;;5.80;99.90;;;;;;5091985;28;20043;-65
2022/04/12 03:50:19;;;;;;;7.35;3.35;;;5.70;99.90;;;;;;5092539;28;20051;-64
2022/04/12 03:53:22;;;;;;;10.43;3.40;;;5.70;99.90;;;;;;5092356;28;20039;-64
2022/04/12 03:56:27;;;;;;;8.38;4.15;;;5.50;99.90;;;;;;5091471;28;20051;-64
2022/04/12 03:59:33;;;;;;;8.35;3.83;;;5.40;99.90;;;;;;5092584;28;20048;-65
2022/04/12 04:02:37;;;;;;;7.15;3.38;;;5.40;99.90;;;;;;5092402;28;20055;-65
2022/04/12 04:05:41;;;;;;;11.30;3.50;;;5.40;99.90;;;;;;5092328;28;20054;-64
2022/04/12 04:08:45;;;;;;;10.02;3.97;;;5.40;99.90;;;;;;5092160;28;20047;-64
2022/04/12 04:11:49;;;;;;;7.93;3.70;;;5.40;99.90;;;;;;5092203;28;20309;-64
2022/04/12 04:14:53;;;;;;;9.98;3.40;;;5.30;99.90;;;;;;5092111;28;20043;-64
2022/04/12 04:17:57;;;;;;;7.75;3.85;;;5.40;99.90;;;;;;5091193;28;20402;-64
2022/04/12 04:21:02;;;;;;;11.85;3.85;;;5.40;99.90;;;;;;5092068;28;20047;-64
2022/04/12 04:24:06;;;;;;;9.55;3.83;;;5.30;99.90;;;;;;5091458;28;20253;-65
2022/04/12 04:27:09;;;;;;;8.70;3.83;;;5.20;99.90;;;;;;5091291;28;20032;-65
2022/04/12 04:30:14;;;;;;;10.57;4.18;;;5.20;99.90;;;;;;5091544;28;20044;-64
2022/04/12 04:33:20;;;;;;;9.10;4.47;;;5.20;99.90;;;;;;5091638;28;20047;-65
2022/04/12 04:36:24;;;;;;;8.85;4.68;;;5.10;99.90;;;;;;5090832;28;20501;-64
2022/04/12 04:39:28;;;;;;;9.73;4.78;;;5.10;99.90;;;;;;5091579;28;20048;-64
2022/04/12 04:42:33;;;;;;;9.02;4.05;;;5.00;99.90;;;;;;5091505;28;20665;-64
2022/04/12 04:45:38;;;;;;;8.98;4.00;;;5.00;99.90;;;;;;5091481;28;20040;-64
2022/04/12 04:48:42;;;;;;;13.80;4.97;;;4.90;99.90;;;;;;5091465;28;20050;-64
2022/04/12 04:51:46;;;;;;;10.13;5.35;;;4.90;99.90;;;;;;5091487;28;20063;-64
2022/04/12 04:54:49;;;;;;;11.98;5.32;;;4.80;99.90;;;;;;5090915;28;20051;-64
2022/04/12 04:57:55;;;;;;;10.15;4.15;;;4.80;99.90;;;;;;5090601;28;20050;-64
2022/04/12 05:01:00;;;;;;;11.20;4.82;;;4.80;99.90;;;;;;5091058;28;20055;-65
2022/04/12 05:04:04;;;;;;;14.38;5.25;;;4.90;99.90;;;;;;5090808;28;20039;-65
2022/04/12 05:07:08;;;;;;;13.90;5.47;;;4.90;99.90;;;;;;5090490;28;20485;-65
2022/04/12 05:10:18;;;;;;;15.57;4.68;;;4.90;99.90;;;;;;5090713;28;20054;-64
2022/04/12 05:13:22;;;;;;;14.52;5.10;;;5.00;99.90;;;;;;5090422;28;20035;-64
2022/04/12 05:16:26;;;;;;;12.45;4.85;;;5.00;99.90;;;;;;5089866;28;20051;-64
2022/04/12 05:19:30;;;;;;;11.35;5.47;;;5.00;99.90;;;;;;5090556;28;20042;-65
2022/04/12 05:22:34;;;;;;;10.18;4.90;;;5.00;99.90;;;;;;5091418;28;20047;-65
2022/04/12 05:25:38;;;;;;;14.23;5.32;;;5.20;99.90;;;;;;5090876;28;20043;-65
2022/04/12 05:28:42;;;;;;;13.52;6.32;;;6.10;99.90;;;;;;5089797;28;20043;-64
2022/04/12 05:31:46;;;;;;;12.98;4.75;;;9.40;99.90;;;;;;5090395;28;20047;-64
2022/04/12 05:34:50;;;;;;;8.65;5.07;;;11.90;99.90;;;;;;5089950;28;20051;-65
2022/04/12 05:37:54;;;;;;;12.07;4.22;;;13.90;99.90;;;;;;5089936;28;20055;-65
2022/04/12 05:40:58;;;;;;;10.95;3.92;;;15.70;99.90;;;;;;5090203;28;20043;-65
2022/04/12 05:44:02;;;;;;;6.13;3.35;;;17.00;99.90;;;;;;5089995;28;20470;-65
2022/04/12 05:47:12;;;;;;;11.73;4.15;;;16.00;99.50;;;;;;5089976;28;20067;-64
2022/04/12 05:50:17;;;;;;;10.38;4.43;;;15.60;99.30;;;;;;5089314;28;20494;-65
2022/04/12 05:53:22;;;;;;;7.50;3.88;;;15.00;99.80;;;;;;5090238;28;20055;-65
2022/04/12 05:56:26;;;;;;;6.93;3.05;;;14.60;99.90;;;;;;5089675;28;20043;-65
2022/04/12 05:59:30;;;;;;;10.27;3.58;;;15.70;99.80;;;;;;5090249;28;20047;-65
2022/04/12 06:02:35;;;;;;;9.70;3.90;;;17.40;98.00;;;;;;5097734;28;20067;-65
2022/04/12 06:05:39;;;;;;;7.25;4.05;;;18.40;96.20;;;;;;5103679;28;20692;-65
2022/04/12 06:08:43;;;;;;;7.93;3.78;;;18.90;95.00;;;;;;5109993;28;20047;-65
2022/04/12 06:11:47;;;;;;;9.77;3.70;;;19.30;94.80;;;;;;5105212;28;20382;-65
2022/04/12 06:14:51;;;;;;;7.25;3.30;;;19.60;93.70;;;;;;5109378;28;20055;-65
2022/04/12 06:17:57;;;;;;;9.20;4.07;;;19.90;93.30;;;;;;5110434;28;20536;-65
2022/04/12 06:21:02;;;;;;;5.55;3.03;;;20.60;92.30;;;;;;5109002;28;20054;-64
2022/04/12 06:24:06;;;;;;;7.03;2.78;;;21.20;91.00;;;;;;5111880;28;20035;-65
2022/04/12 06:27:10;;;;;;;7.13;2.97;;;21.60;90.70;;;;;;5106963;28;20038;-66
2022/04/12 06:30:23;;;;;;;3.38;2.15;;;22.30;89.00;;;;;;5102501;28;20333;-65
2022/04/12 06:33:28;;;;;;;6.63;3.05;;;23.10;86.40;;;;;;5108614;28;20039;-62
2022/04/12 06:36:32;;;;;;;7.40;2.53;;;23.50;83.50;;;;;;5104150;28;20513;-63
2022/04/12 06:39:36;;;;;;;5.68;2.13;;;23.30;81.40;;;;;;5111265;28;20138;-63
2022/04/12 06:42:40;;;;;;;5.07;2.55;;;23.20;80.30;;;;;;5109316;28;20034;-63
2022/04/12 06:45:44;;;;;;;7.15;3.08;;;23.20;80.20;;;;;;5104243;28;20406;-63
2022/04/12 06:48:49;;;;;;;8.30;3.45;;;20.40;81.70;;;;;;5106525;28;20497;-63
2022/04/12 06:51:53;;;;;;;7.43;3.05;;;17.00;87.60;;;;;;5108857;28;20027;-63
2022/04/12 06:54:57;;;;;;;4.28;2.70;;;16.60;90.80;;;;;;5105228;28;20050;-65
2022/04/12 06:58:01;;;;;;;6.28;2.45;;;16.40;90.40;;;;;;5109582;28;20035;-63
2022/04/12 07:01:05;;;;;;;5.72;2.70;;;17.50;90.50;;;;;;5107669;28;20043;-62
2022/04/12 07:04:09;;;;;;;6.90;2.80;;;17.80;89.90;;;;;;5106210;28;20038;-63
2022/04/12 07:07:13;;;;;;;5.30;2.47;;;19.00;88.50;;;;;;5111107;28;20386;-62
2022/04/12 07:10:17;;;;;;;5.30;2.38;;;19.50;85.20;;;;;;5103093;28;20055;-62
2022/04/12 07:13:21;;;;;;;8.77;2.80;;;18.50;84.90;;;;;;5110443;28;20997;-62
2022/04/12 07:16:25;;;;;;;7.90;3.30;;;18.90;86.50;;;;;;5110428;28;20050;-62
2022/04/12 07:19:30;;;;;;;8.23;3.13;;;20.10;85.20;;;;;;5105700;28;20042;-63
2022/04/12 07:22:35;;;;;;;16.52;4.72;;;21.00;82.80;;;;;;5103394;28;20039;-63
2022/04/12 07:25:39;;;;;;;7.50;3.72;;;21.40;81.30;;;;;;5105996;28;20121;-63
2022/04/12 07:28:43;;;;;;;10.80;3.65;;;19.90;84.50;;;;;;5101636;28;20489;-62
2022/04/12 07:31:47;;;;;;;6.05;2.72;;;21.90;81.90;;;;;;5110119;28;20062;-63
2022/04/12 07:34:52;;;;;;;7.15;2.95;;;21.60;79.30;;;;;;5103675;28;20047;-63
2022/04/12 07:37:56;;;;;;;5.50;2.65;;;23.40;78.20;;;;;;5106701;28;20046;-63
2022/04/12 07:41:00;;;;;;;9.32;3.67;;;23.80;77.00;;;;;;5106618;28;20054;-63
2022/04/12 07:44:05;;;;;;;7.68;4.10;;;22.10;76.90;;;;;;5102284;28;20647;-63
2022/04/12 07:47:09;;;;;;;5.68;3.25;;;21.40;77.70;;;;;;5107149;28;20039;-62
2022/04/12 07:50:13;;;;;;;6.93;3.08;;;21.90;76.20;;;;;;5110443;28;20066;-62
2022/04/12 07:53:18;;;;;;;6.22;2.90;;;22.60;76.40;;;;;;5106368;28;20063;-63
2022/04/12 07:56:22;;;;;;;9.85;3.28;;;21.00;76.70;;;;;;5108840;28;20047;-63
2022/04/12 07:59:25;;;;;;;5.82;2.83;;;20.30;79.20;;;;;;5103065;28;20058;-63
2022/04/12 08:02:29;;;;;;;6.85;3.05;;;21.60;76.90;;;;;;5109479;28;20057;-62
2022/04/12 08:05:37;;;;;;;10.35;3.20;;;21.40;75.90;;;;;;5106322;28;20070;-62
2022/04/12 08:08:41;;;;;;;6.22;3.63;;;21.60;77.10;;;;;;5107844;28;20043;-62
2022/04/12 08:11:45;;;;;;;6.05;3.63;;;21.30;76.10;;;;;;5107266;28;20050;-62
2022/04/12 08:14:49;;;;;;;4.40;3.17;;;18.80;80.10;;;;;;5107984;28;20051;-65
2022/04/12 08:17:53;;;;;;;9.30;3.85;;;21.50;78.40;;;;;;5099890;28;20042;-62
2022/04/12 08:20:57;;;;;;;7.45;3.80;;;24.10;75.30;;;;;;5106006;28;20039;-64
2022/04/12 08:24:03;;;;;;;9.45;3.42;;;22.00;77.40;;;;;;5103468;28;21491;-64
2022/04/12 08:27:07;;;;;;;11.88;4.25;;;22.10;77.30;;;;;;5107480;28;20070;-64
2022/04/12 08:30:12;;;;;;;10.55;4.15;;;24.10;74.10;;;;;;5105643;28;20043;-64
2022/04/12 08:33:15;;;;;;;9.00;4.60;;;21.80;74.90;;;;;;5104684;28;20050;-61
2022/04/12 08:36:22;;;;;;;12.20;4.32;;;24.10;74.10;;;;;;5099400;28;20050;-64
2022/04/12 08:39:26;;;;;;;6.55;3.60;;;24.70;72.70;;;;;;5105552;28;20592;-64
2022/04/12 08:42:31;;;;;;;7.15;3.28;;;22.70;74.80;;;;;;5103923;28;20043;-64
2022/04/12 08:45:37;;;;;;;9.23;3.90;;;23.10;76.10;;;;;;5105883;28;20050;-64
2022/04/12 08:48:41;;;;;;;7.22;4.10;;;25.30;71.80;;;;;;5103358;28;20043;-64
2022/04/12 08:51:46;;;;;;;7.00;2.95;;;24.40;70.80;;;;;;5100850;28;20030;-64
2022/04/12 08:54:50;;;;;;;8.43;3.80;;;22.30;73.80;;;;;;5105324;28;20394;-64
2022/04/12 08:57:54;;;;;;;10.38;3.70;;;21.90;73.80;;;;;;5092183;28;20039;-64
2022/04/12 09:01:00;;;;;;;7.40;3.30;;;24.30;72.20;;;;;;5105587;28;20043;-64
2022/04/12 09:04:06;;;;;;;7.43;2.97;;;21.90;72.90;;;;;;5107694;28;20050;-64
2022/04/12 09:07:11;;;;;;;7.95;3.50;;;24.20;72.90;;;;;;5100786;28;20043;-63
2022/04/12 09:10:16;;;;;;;7.93;3.55;;;25.00;69.70;;;;;;5097137;28;20110;-73
2022/04/12 09:13:20;;;;;;;9.52;3.15;;;23.90;72.20;;;;;;5110877;28;20038;-73
2022/04/12 09:16:24;;;;;;;8.40;3.40;;;22.30;73.20;;;;;;5105035;28;20056;-72
2022/04/12 09:19:46;;;;;;;7.25;3.30;;;25.30;70.30;;;;;;5104491;28;20038;-64
2022/04/12 09:22:50;;;;;;;6.88;3.47;;;27.10;68.50;;;;;;5104745;28;20042;-64
2022/04/12 09:25:55;;;;;;;6.60;2.70;;;28.90;64.90;;;;;;5103283;28;20046;-64
2022/04/12 09:29:02;;;;;;;8.70;2.40;;;23.30;63.00;;;;;;5103458;28;20648;-63
2022/04/12 09:32:09;;;;;;;7.75;2.60;;;21.40;68.90;;;;;;5107698;28;20047;-64
2022/04/12 09:35:13;;;;;;;4.13;1.95;;;24.80;65.70;;;;;;5103097;28;20046;-64
2022/04/12 09:38:31;;;;;;;3.38;1.58;;;27.00;63.40;;;;;;5108414;28;20394;-64
2022/04/12 09:41:35;;;;;;;5.57;1.38;;;29.60;54.20;;;;;;5102834;28;20493;-64
2022/04/12 09:44:39;;;;;;;3.33;1.60;;;26.00;52.50;;;;;;5106722;28;20067;-63
2022/04/12 09:47:45;;;;;;;3.65;1.75;;;25.40;54.80;;;;;;5106447;28;20030;-63
2022/04/12 09:50:51;;;;;;;3.33;1.63;;;22.10;56.40;;;;;;5107666;28;20042;-63
2022/04/12 09:53:55;;;;;;;6.03;1.50;;;22.80;56.60;;;;;;5110685;28;20117;-64
2022/04/12 09:56:59;;;;;;;3.97;1.75;;;22.90;55.40;;;;;;5104825;28;20039;-64
2022/04/12 10:00:04;;;;;;;3.28;1.58;;;24.80;56.30;;;;;;5108794;28;20121;-72
2022/04/12 10:03:13;;;;;;;2.50;1.33;;;23.00;55.10;;;;;;5105996;28;20051;-73
2022/04/12 10:06:23;;;;;;;2.83;1.08;;;26.70;55.60;;;;;;5103293;28;20047;-74
2022/04/12 10:09:29;;;;;;;4.18;1.45;;;24.70;54.10;;;;;;5107829;28;20042;-64
2022/04/12 10:12:35;;;;;;;2.28;1.15;;;24.30;53.90;;;;;;5107143;28;20038;-72
2022/04/12 10:15:39;;;;;;;4.68;1.30;;;27.00;55.90;;;;;;5101986;28;20047;-73
2022/04/12 10:18:44;;;;;;;2.80;1.40;;;26.20;54.20;;;;;;5100028;28;20035;-64
2022/04/12 10:21:48;;;;;;;10.07;1.40;;;26.50;54.10;;;;;;5107661;28;20050;-64
2022/04/12 10:24:53;;;;;;;2.60;0.88;;;26.60;51.80;;;;;;5106513;28;20501;-63
2022/04/12 10:27:59;;;;;;;3.03;1.10;;;27.40;51.10;;;;;;5101749;28;20046;-72
2022/04/12 10:31:19;;;;;;;3.75;1.20;;;30.00;48.20;;;;;;5105960;28;20046;-72
2022/04/12 10:34:24;;;;;;;3.40;1.20;;;30.90;50.80;;;;;;5104923;28;20046;-73
2022/04/12 10:37:28;;;;;;;3.30;1.20;;;27.20;49.10;;;;;;5105546;28;20054;-64
2022/04/12 10:40:34;;;;;;;2.55;1.08;;;28.60;50.70;;;;;;5103628;28;20398;-72
2022/04/12 10:43:40;;;;;;;1.88;1.00;;;27.70;50.90;;;;;;5094945;28;20039;-72
2022/04/12 10:46:50;;;;;;;5.13;1.33;;;28.60;49.60;;;;;;5099922;28;20508;-73
2022/04/12 10:49:57;;;;;;;2.42;1.00;;;28.40;48.70;;;;;;5104022;28;20050;-65
2022/04/12 10:53:01;;;;;;;4.43;0.93;;;29.60;46.80;;;;;;5105617;28;20039;-73
2022/04/12 10:56:21;;;;;;;2.60;0.90;;;27.10;45.40;;;;;;5083540;28;20035;-74
2022/04/12 10:59:44;;;;;;;2.80;0.95;;;23.80;47.50;;;;;;5112316;28;20054;-74
2022/04/12 11:02:58;;;;;;;1.92;0.77;;;27.40;46.10;;;;;;5110666;28;20042;-73
2022/04/12 11:06:05;;;;;;;4.65;1.15;;;23.20;46.10;;;;;;5107557;28;20059;-75
2022/04/12 11:09:11;;;;;;;4.30;1.33;;;25.50;48.00;;;;;;5110379;28;20393;-65
2022/04/12 11:12:15;;;;;;;2.13;1.08;;;25.70;47.60;;;;;;5103905;28;20043;-65
2022/04/12 11:15:21;;;;;;;5.40;1.20;;;23.40;49.40;;;;;;5102963;28;20415;-73
2022/04/12 11:18:45;;;;;;;5.07;1.30;;;24.60;50.00;;;;;;5109870;28;20046;-74
2022/04/12 11:21:50;;;;;;;3.85;1.40;;;24.00;49.10;;;;;;5109016;28;20043;-73
2022/04/12 11:25:15;;;;;;;4.20;1.83;;;26.70;49.30;;;;;;5107050;28;20040;-73
2022/04/12 11:28:24;;;;;;;3.65;1.40;;;25.50;47.20;;;;;;5100731;28;20038;-64
2022/04/12 11:31:29;;;;;;;4.38;1.48;;;26.70;49.10;;;;;;5110031;28;20437;-72
2022/04/12 11:34:37;;;;;;;3.33;1.10;;;26.00;49.80;;;;;;5103265;28;20047;-73
2022/04/12 11:37:44;;;;;;;2.75;1.02;;;26.10;46.40;;;;;;5108945;28;20450;-72
2022/04/12 11:41:14;;;;;;;2.92;0.98;;;27.70;48.80;;;;;;5109070;28;20040;-72
2022/04/12 11:44:23;;;;;;;2.63;1.33;;;28.20;47.30;;;;;;5105059;28;20038;-65
2022/04/12 11:47:38;;;;;;;4.07;0.95;;;26.40;47.20;;;;;;5102742;28;20058;-65
2022/04/12 11:50:52;;;;;;;2.38;1.25;;;26.20;49.40;;;;;;5110383;28;20494;-72
2022/04/12 11:53:56;;;;;;;4.03;1.33;;;26.40;48.20;;;;;;5102641;28;20051;-64
2022/04/12 11:57:12;;;;;;;2.38;1.05;;;24.60;48.20;;;;;;5090696;28;20039;-66
2022/04/12 12:00:18;;;;;;;5.35;1.63;;;27.40;49.10;;;;;;5103338;28;20035;-65
2022/04/12 12:03:23;;;;;;;3.28;1.30;;;23.50;49.70;;;;;;5102241;28;20038;-73
2022/04/12 12:06:27;;;;;;;5.80;1.40;;;23.60;52.70;;;;;;5103819;28;20485;-73
2022/04/12 12:09:32;;;;;;;6.72;1.70;;;25.20;50.70;;;;;;5107509;28;20058;-73
2022/04/12 12:12:37;;;;;;;3.42;1.40;;;25.60;50.10;;;;;;5106894;28;20038;-74
2022/04/12 12:15:45;;;;;;;4.40;1.23;;;25.30;51.10;;;;;;5105988;28;20042;-66
2022/04/12 12:18:50;;;;;;;5.95;1.35;;;25.20;49.30;;;;;;5112769;28;20038;-73
2022/04/12 12:21:54;;;;;;;2.28;1.17;;;25.10;48.70;;;;;;5111707;28;20398;-73
2022/04/12 12:24:58;;;;;;;2.55;1.05;;;27.10;47.40;;;;;;5112128;28;20063;-65
2022/04/12 12:28:02;;;;;;;5.40;1.15;;;25.80;49.80;;;;;;5111944;28;20034;-65
2022/04/12 12:31:07;;;;;;;4.30;1.40;;;26.60;48.90;;;;;;5110376;28;20046;-65
2022/04/12 12:34:27;;;;;;;2.08;1.30;;;28.10;48.10;;;;;;5102010;28;20047;-65
2022/04/12 12:37:33;;;;;;;2.35;0.93;;;23.60;50.30;;;;;;5098323;28;20477;-65
2022/04/12 12:40:39;;;;;;;3.40;1.42;;;25.10;49.60;;;;;;5109328;28;20390;-65
2022/04/12 12:43:43;;;;;;;4.18;1.48;;;25.00;49.40;;;;;;5103422;28;20045;-65
2022/04/12 12:46:54;;;;;;;5.15;1.40;;;26.00;46.10;;;;;;5102860;28;20038;-65
2022/04/12 12:49:59;;;;;;;;;;;25.70;46.60;;;;;;5111759;28;20394;-65
2022/04/12 12:53:07;;;;;;;2.53;1.17;;;27.60;45.30;;;;;;5101399;28;20438;-65
2022/04/12 12:56:17;;;;;;;3.45;1.17;;;25.70;46.30;;;;;;5104773;28;20043;-65
2022/04/12 12:59:30;;;;;;;1.75;1.05;;;26.90;47.30;;;;;;5104876;28;20058;-66
2022/04/12 13:02:35;;;;;;;5.57;1.80;;;29.60;45.80;;;;;;5107116;28;20379;-65
2022/04/12 13:06:01;;;;;;;3.78;1.23;;;27.30;44.90;;;;;;5107725;28;20051;-65
2022/04/12 13:09:05;;;;;;;3.30;1.38;;;25.70;46.60;;;;;;5106756;28;20046;-64
2022/04/12 13:12:10;;;;;;;2.50;1.10;;;26.00;47.60;;;;;;5099824;28;20067;-64
2022/04/12 13:15:16;;;;;;;7.97;2.00;;;24.70;45.20;;;;;;5099845;28;20494;-65
2022/04/12 13:18:21;;;;;;;2.53;1.10;;;24.80;46.10;;;;;;5099011;28;20566;-66
2022/04/12 13:21:25;;;;;;;2.45;1.10;;;24.20;46.00;;;;;;5101550;28;20046;-65
2022/04/12 13:24:34;;;;;;;2.05;1.00;;;24.80;45.90;;;;;;5099004;28;20390;-65
2022/04/12 13:27:38;;;;;;;1.63;1.08;;;25.20;47.70;;;;;;5106342;28;20058;-65
2022/04/12 13:30:43;;;;;;;2.10;1.00;;;26.10;46.20;;;;;;5110017;28;20513;-65
2022/04/12 13:33:47;;;;;;;3.28;1.27;;;26.90;47.50;;;;;;5109827;28;20034;-64
2022/04/12 13:36:53;;;;;;;4.95;1.50;;;23.60;48.10;;;;;;5109583;28;20417;-65
2022/04/12 13:39:57;;;;;;;3.03;1.23;;;22.70;48.10;;;;;;5110358;28;20039;-65
2022/04/12 13:43:03;;;;;;;5.68;1.33;;;23.40;47.80;;;;;;5109915;28;20050;-64
2022/04/12 13:46:07;;;;;;;4.13;1.55;;;24.10;48.80;;;;;;5109968;28;20038;-64
2022/04/12 13:49:11;;;;;;;2.35;1.10;;;23.30;48.30;;;;;;5108905;28;20387;-64
2022/04/12 13:52:16;;;;;;;1.85;1.05;;;22.50;48.60;;;;;;5109524;28;20042;-64
2022/04/12 13:55:20;;;;;;;3.05;1.10;;;23.70;46.80;;;;;;5108386;28;20039;-64
2022/04/12 13:58:24;;;;;;;3.00;0.98;;;22.40;48.00;;;;;;5090110;28;20050;-64
2022/04/12 14:01:30;;;;;;;3.80;1.17;;;23.10;47.70;;;;;;5097224;28;20030;-64
2022/04/12 14:04:34;;;;;;;4.07;1.10;;;23.40;48.30;;;;;;5110403;28;20047;-64
2022/04/12 14:07:38;;;;;;;6.75;1.17;;;24.10;49.60;;;;;;5109673;28;20031;-64
2022/04/12 14:10:42;;;;;;;7.40;1.25;;;22.60;48.90;;;;;;5110177;28;20398;-64
2022/04/12 14:13:46;;;;;;;2.67;1.10;;;21.60;51.30;;;;;;5109045;28;20390;-64
2022/04/12 14:16:51;;;;;;;3.25;1.30;;;21.30;50.50;;;;;;5108016;28;20394;-64
2022/04/12 14:19:54;;;;;;;3.78;1.20;;;21.40;50.70;;;;;;5110422;28;20045;-65
2022/04/12 14:22:58;;;;;;;2.13;1.13;;;22.80;53.00;;;;;;5110219;28;20050;-65
2022/04/12 14:26:04;;;;;;;2.67;1.20;;;23.70;49.60;;;;;;5108015;28;20039;-65
2022/04/12 14:29:09;;;;;;;4.57;1.20;;;22.00;49.00;;;;;;5109064;28;20398;-64
2022/04/12 14:32:14;;;;;;;2.67;0.90;;;21.20;49.50;;;;;;5113024;28;20047;-64
2022/04/12 14:35:18;;;;;;;3.70;0.95;;;21.70;50.70;;;;;;5113749;28;20046;-64
2022/04/12 14:38:26;;;;;;;2.90;1.38;;;21.50;51.80;;;;;;5113830;28;20481;-64
2022/04/12 14:41:31;;;;;;;2.22;1.13;;;21.50;49.90;;;;;;5114010;28;20058;-64
2022/04/12 14:44:35;;;;;;;3.72;1.35;;;21.80;50.20;;;;;;5112642;28;20437;-65
2022/04/12 14:47:39;;;;;;;3.15;1.15;;;21.40;49.80;;;;;;5112802;28;20043;-64
2022/04/12 14:50:43;;;;;;;3.33;1.08;;;22.20;51.20;;;;;;5100682;28;20050;-64
2022/04/12 14:53:47;;;;;;;5.00;2.20;;;23.20;51.50;;;;;;5113583;28;20513;-64
2022/04/12 14:56:51;;;;;;;3.38;1.38;;;23.60;50.80;;;;;;5113380;28;20070;-64
2022/04/12 14:59:56;;;;;;;4.25;1.20;;;23.80;50.30;;;;;;5112876;28;20386;-65
2022/04/12 15:03:00;;;;;;;3.80;1.20;;;23.70;49.20;;;;;;5105356;28;20034;-65
2022/04/12 15:06:06;;;;;;;6.32;1.50;;;21.90;51.40;;;;;;5113492;28;20047;-65
2022/04/12 15:09:10;;;;;;;3.08;1.25;;;20.50;51.50;;;;;;5113109;28;20498;-65
2022/04/12 15:12:14;;;;;;;3.90;1.42;;;20.90;53.80;;;;;;5114016;28;20044;-64
2022/04/12 15:15:18;;;;;;;3.55;1.25;;;21.20;51.50;;;;;;5113447;28;20043;-65
2022/04/12 15:18:25;;;;;;;2.25;1.05;;;21.60;52.40;;;;;;5113591;28;20043;-64
2022/04/12 15:21:30;;;;;;;3.10;1.25;;;22.20;51.70;;;;;;5113742;28;20055;-64
2022/04/12 15:24:34;;;;;;;3.63;1.10;;;22.30;50.50;;;;;;5113362;28;20039;-64
2022/04/12 15:27:43;;;;;;;3.47;1.30;;;22.10;52.80;;;;;;5112267;28;20050;-64
2022/04/12 15:30:47;;;;;;;3.58;1.20;;;22.30;54.50;;;;;;5112828;28;20051;-65
2022/04/12 15:33:51;;;;;;;2.17;1.25;;;22.40;51.10;;;;;;5113202;28;20068;-64
2022/04/12 15:36:55;;;;;;;3.53;1.58;;;22.60;53.80;;;;;;5112633;28;20536;-64
2022/04/12 15:39:59;;;;;;;3.00;1.40;;;22.00;51.80;;;;;;5112842;28;20051;-65
2022/04/12 15:43:05;;;;;;;2.63;1.30;;;22.00;53.90;;;;;;5113107;28;20038;-65
2022/04/12 15:46:14;;;;;;;3.90;1.23;;;21.90;52.20;;;;;;5112365;28;20042;-64
2022/04/12 15:49:18;;;;;;;3.30;1.48;;;21.10;52.60;;;;;;5112924;28;20046;-65
2022/04/12 15:52:22;;;;;;;3.00;1.50;;;20.90;53.80;;;;;;5112897;28;20046;-64
2022/04/12 15:55:27;;;;;;;5.72;1.52;;;20.80;54.40;;;;;;5112601;28;20043;-64
2022/04/12 15:58:32;;;;;;;4.93;1.33;;;20.90;55.40;;;;;;5112806;28;20410;-64
2022/04/12 16:01:36;;;;;;;4.40;1.77;;;21.30;55.80;;;;;;5112687;28;20497;-65
2022/04/12 16:04:40;;;;;;;6.05;1.40;;;21.10;54.20;;;;;;5112116;28;20051;-64
2022/04/12 16:07:47;;;;;;;3.63;1.45;;;20.80;54.20;;;;;;5112161;28;20050;-65
2022/04/12 16:10:51;;;;;;;2.85;1.30;;;21.10;55.20;;;;;;5112420;28;20050;-64